Time;durP1;ratioP1;P1;durP2;ratioP2;P2;SDS_P1;SDS_P2;PMS_P1;PMS_P2;Temp;Humidity;BMP_temperature;BMP_pressure;BME280_temperature;BME280_humidity;BME280_pressure;Samples;Min_cycle;Max_cycle;Signal;HPM_P1;HPM_P2
2023/06/01 00:00:30;;;;;;;20.20;12.07;;;;;;;-148.88;100.00;-17125.47;5014012;28;20112;-85
2023/06/01 00:02:56;;;;;;;15.18;6.45;;;;;;;-148.88;100.00;-17125.47;5014008;28;20044;-83
2023/06/01 00:05:21;;;;;;;19.40;11.77;;;;;;;-148.88;100.00;-17125.47;5014117;28;20408;-86
2023/06/01 00:07:47;;;;;;;16.90;11.57;;;;;;;-148.88;100.00;-17125.47;5013523;28;20091;-85
2023/06/01 00:10:12;;;;;;;20.58;12.10;;;;;;;-148.88;100.00;-17125.47;5013467;28;20026;-84
2023/06/01 00:12:38;;;;;;;20.48;11.63;;;;;;;-148.88;100.00;-17125.47;5013526;28;20071;-85
2023/06/01 00:15:04;;;;;;;17.00;10.02;;;;;;;-148.88;100.00;-17125.47;5013472;28;20025;-85
2023/06/01 00:17:30;;;;;;;19.40;11.40;;;;;;;-148.88;100.00;-17125.47;5013583;28;20030;-85
2023/06/01 00:19:56;;;;;;;15.48;10.20;;;;;;;-148.88;100.00;-17125.47;5014383;28;20021;-83
2023/06/01 00:22:23;;;;;;;16.88;10.80;;;;;;;-148.88;100.00;-17125.47;5013588;28;20018;-85
2023/06/01 00:24:49;;;;;;;20.77;11.02;;;;;;;-148.88;100.00;-17125.47;5013547;28;20029;-85
2023/06/01 00:27:15;;;;;;;18.02;10.35;;;;;;;-148.88;100.00;-17125.47;5013494;28;20026;-83
2023/06/01 00:29:40;;;;;;;18.63;10.60;;;;;;;-148.88;100.00;-17125.47;5013681;28;20029;-85
2023/06/01 00:32:06;;;;;;;17.70;10.65;;;;;;;-148.88;100.00;-17125.47;5014010;28;20060;-84
2023/06/01 00:34:31;;;;;;;16.58;9.80;;;;;;;-148.88;100.00;-17125.47;5014165;28;20087;-84
2023/06/01 00:36:57;;;;;;;23.00;10.75;;;;;;;-148.88;100.00;-17125.47;5014176;28;20017;-84
2023/06/01 00:39:22;;;;;;;16.77;10.25;;;;;;;-148.88;100.00;-17125.47;5013710;28;20111;-86
2023/06/01 00:41:48;;;;;;;13.93;10.10;;;;;;;-148.88;100.00;-17125.47;5013280;28;20030;-87
2023/06/01 00:44:13;;;;;;;14.45;9.77;;;;;;;-148.88;100.00;-17125.47;5013361;28;20481;-84
2023/06/01 00:46:39;;;;;;;14.23;6.40;;;;;;;-148.88;100.00;-17125.47;5013191;28;20022;-85
2023/06/01 00:49:04;;;;;;;16.10;9.40;;;;;;;-148.88;100.00;-17125.47;5018851;28;20064;-86
2023/06/01 00:51:32;;;;;;;16.42;9.27;;;;;;;-148.88;100.00;-17125.47;5018685;28;20030;-86
2023/06/01 00:53:59;;;;;;;16.63;9.55;;;;;;;-148.88;100.00;-17125.47;5018596;28;20029;-85
2023/06/01 00:56:24;;;;;;;18.58;9.77;;;;;;;-148.88;100.00;-17125.47;5017835;28;20061;-86
2023/06/01 00:58:50;;;;;;;18.10;9.38;;;;;;;-148.88;100.00;-17125.47;5014911;28;20075;-84
2023/06/01 01:01:19;;;;;;;13.18;9.00;;;;;;;-148.88;100.00;-17125.47;5012707;28;20026;-85
2023/06/01 01:03:49;;;;;;;17.25;9.20;;;;;;;-148.88;100.00;-17125.47;5012773;28;20117;-85
2023/06/01 01:06:56;;;;;;;17.85;9.35;;;;;;;-148.88;100.00;-17125.47;5012720;28;20116;-85
2023/06/01 01:10:02;;;;;;;16.55;9.05;;;;;;;-148.88;100.00;-17125.47;5013144;28;20484;-85
2023/06/01 01:12:27;;;;;;;19.30;8.60;;;;;;;-148.88;100.00;-17125.47;5012747;28;20084;-85
2023/06/01 01:15:08;;;;;;;16.05;8.68;;;;;;;-148.88;100.00;-17125.47;5014253;28;20593;-85
2023/06/01 01:17:42;;;;;;;14.52;8.43;;;;;;;-148.88;100.00;-17125.47;5012912;28;20030;-84
2023/06/01 01:20:35;;;;;;;16.50;8.93;;;;;;;-148.88;100.00;-17125.47;5012929;28;20112;-85
2023/06/01 01:23:24;;;;;;;16.75;9.10;;;;;;;-148.88;100.00;-17125.47;5011949;28;20057;-84
2023/06/01 01:25:52;;;;;;;16.08;8.85;;;;;;;-148.88;100.00;-17125.47;5012443;28;20022;-85
2023/06/01 01:28:45;;;;;;;17.17;9.38;;;;;;;-148.88;100.00;-17125.47;5012523;28;20021;-84
2023/06/01 01:31:15;;;;;;;14.50;8.80;;;;;;;-148.88;100.00;-17125.47;5012608;28;20026;-84
2023/06/01 01:33:42;;;;;;;14.05;8.68;;;;;;;-148.88;100.00;-17125.47;5012432;28;20028;-85
2023/06/01 01:36:09;;;;;;;19.77;9.23;;;;;;;-148.88;100.00;-17125.47;5013711;28;20061;-85
2023/06/01 01:38:35;;;;;;;18.08;9.57;;;;;;;-148.88;100.00;-17125.47;5012314;28;20049;-84
2023/06/01 01:41:01;;;;;;;18.88;9.43;;;;;;;-148.88;100.00;-17125.47;5012358;28;20416;-85
2023/06/01 01:43:27;;;;;;;19.23;9.88;;;;;;;-148.88;100.00;-17125.47;5012934;28;20480;-85
2023/06/01 01:46:01;;;;;;;20.05;10.73;;;;;;;-148.88;100.00;-17125.47;5012026;28;20032;-85
2023/06/01 01:48:39;;;;;;;15.88;6.38;;;;;;;-148.88;100.00;-17125.47;5012128;28;20036;-85
2023/06/01 01:51:12;;;;;;;18.38;9.98;;;;;;;-148.88;100.00;-17125.47;5012623;28;20042;-85
2023/06/01 01:53:41;;;;;;;12.30;5.88;;;;;;;-148.88;100.00;-17125.47;5013139;28;20053;-85
2023/06/01 01:56:07;;;;;;;18.45;11.15;;;;;;;-148.88;100.00;-17125.47;5014667;28;20026;-86
2023/06/01 01:58:33;;;;;;;19.02;10.85;;;;;;;-148.88;100.00;-17125.47;5013773;28;20056;-87
2023/06/01 02:00:59;;;;;;;19.55;11.45;;;;;;;-148.88;100.00;-17125.47;5012993;28;20045;-85
2023/06/01 02:03:24;;;;;;;15.98;10.93;;;;;;;-148.88;100.00;-17125.47;5013264;28;20018;-85
2023/06/01 02:05:50;;;;;;;17.67;10.43;;;;;;;-148.88;100.00;-17125.47;5013128;28;20037;-85
2023/06/01 02:08:15;;;;;;;18.88;11.07;;;;;;;-148.88;100.00;-17125.47;5013140;28;20022;-85
2023/06/01 02:10:41;;;;;;;19.20;10.45;;;;;;;-148.88;100.00;-17125.47;5012581;28;20033;-85
2023/06/01 02:13:06;;;;;;;20.33;11.55;;;;;;;-148.88;100.00;-17125.47;5013437;28;20032;-86
2023/06/01 02:15:32;;;;;;;16.75;10.93;;;;;;;-148.88;100.00;-17125.47;5011436;28;20029;-84
2023/06/01 02:17:59;;;;;;;15.02;6.18;;;;;;;-148.88;100.00;-17125.47;5011663;28;20460;-85
2023/06/01 02:20:24;;;;;;;18.73;11.25;;;;;;;-148.88;100.00;-17125.47;5011599;28;20036;-85
2023/06/01 02:22:55;;;;;;;17.00;10.63;;;;;;;-148.88;100.00;-17125.47;5011964;28;20026;-85
2023/06/01 02:25:21;;;;;;;19.15;11.77;;;;;;;-148.88;100.00;-17125.47;5011997;28;20033;-85
2023/06/01 02:27:46;;;;;;;19.27;11.23;;;;;;;-148.88;100.00;-17125.47;5012935;28;20088;-85
2023/06/01 02:30:18;;;;;;;19.20;12.30;;;;;;;-148.88;100.00;-17125.47;5012631;28;20041;-85
2023/06/01 02:32:48;;;;;;;17.58;11.27;;;;;;;-148.88;100.00;-17125.47;5012671;28;20237;-85
2023/06/01 02:35:14;;;;;;;18.65;11.93;;;;;;;-148.88;100.00;-17125.47;5015839;28;20484;-85
2023/06/01 02:37:39;;;;;;;18.52;11.32;;;;;;;-148.88;100.00;-17125.47;5016520;28;20029;-85
2023/06/01 02:40:06;;;;;;;18.95;12.30;;;;;;;-148.88;100.00;-17125.47;5015765;28;20034;-84
2023/06/01 02:42:32;;;;;;;18.95;12.02;;;;;;;-148.88;100.00;-17125.47;5015708;28;20060;-85
2023/06/01 02:44:59;;;;;;;19.80;12.80;;;;;;;-148.88;100.00;-17125.47;5015684;28;20053;-85
2023/06/01 02:47:25;;;;;;;17.77;12.10;;;;;;;-148.88;100.00;-17125.47;5018274;28;20018;-85
2023/06/01 02:49:50;;;;;;;20.40;13.57;;;;;;;-148.88;100.00;-17125.47;5015507;28;20022;-86
2023/06/01 02:52:16;;;;;;;23.55;13.35;;;;;;;-148.88;100.00;-17125.47;5017284;28;20452;-85
2023/06/01 02:54:41;;;;;;;21.67;13.65;;;;;;;-148.88;100.00;-17125.47;5019474;28;20022;-86
2023/06/01 02:57:06;;;;;;;20.83;13.48;;;;;;;-148.88;100.00;-17125.47;5018258;28;20053;-86
2023/06/01 02:59:32;;;;;;;19.52;12.93;;;;;;;-148.88;100.00;-17125.47;5019074;28;20065;-86
2023/06/01 03:01:57;;;;;;;21.90;12.32;;;;;;;-148.88;100.00;-17125.47;5020308;28;20116;-86
2023/06/01 03:04:23;;;;;;;20.63;12.02;;;;;;;-148.88;100.00;-17125.47;5017611;28;20026;-85
2023/06/01 03:06:49;;;;;;;21.05;11.68;;;;;;;-148.88;100.00;-17125.47;5017459;28;20045;-85
2023/06/01 03:09:15;;;;;;;19.90;12.40;;;;;;;-148.88;100.00;-17125.47;5017432;28;20061;-86
2023/06/01 03:11:41;;;;;;;20.10;12.48;;;;;;;-148.88;100.00;-17125.47;5015449;28;20472;-85
2023/06/01 03:14:07;;;;;;;20.73;11.93;;;;;;;-148.88;100.00;-17125.47;5014729;28;20432;-84
2023/06/01 03:16:32;;;;;;;20.75;12.73;;;;;;;-148.88;100.00;-17125.47;5015039;28;20029;-85
2023/06/01 03:19:01;;;;;;;19.73;12.55;;;;;;;-148.88;100.00;-17125.47;5014769;28;20017;-85
2023/06/01 03:21:27;;;;;;;20.95;12.93;;;;;;;-148.88;100.00;-17125.47;5014604;28;20052;-85
2023/06/01 03:23:52;;;;;;;19.00;13.02;;;;;;;-148.88;100.00;-17125.47;5015078;28;20064;-85
2023/06/01 03:26:20;;;;;;;19.00;12.80;;;;;;;-148.88;100.00;-17125.47;5015022;28;20112;-86
2023/06/01 03:28:46;;;;;;;22.83;13.30;;;;;;;-148.88;100.00;-17125.47;5014072;28;20065;-85
2023/06/01 03:31:11;;;;;;;21.45;13.63;;;;;;;-148.88;100.00;-17125.47;5014589;28;20056;-85
2023/06/01 03:33:38;;;;;;;18.55;13.02;;;;;;;-148.88;100.00;-17125.47;5014528;28;20045;-85
2023/06/01 03:36:14;;;;;;;19.67;13.00;;;;;;;-148.88;100.00;-17125.47;5015470;28;20088;-85
2023/06/01 03:38:41;;;;;;;20.02;13.45;;;;;;;-148.88;100.00;-17125.47;5014912;28;20025;-84
2023/06/01 03:41:09;;;;;;;22.38;13.38;;;;;;;-148.88;100.00;-17125.47;5014961;28;20026;-84
2023/06/01 03:43:35;;;;;;;21.60;14.27;;;;;;;-148.88;100.00;-17125.47;5016251;28;20033;-84
2023/06/01 03:46:00;;;;;;;22.35;14.15;;;;;;;-148.88;100.00;-17125.47;5013786;28;20036;-85
2023/06/01 03:48:25;;;;;;;22.58;13.63;;;;;;;-148.88;100.00;-17125.47;5015302;28;20104;-86
2023/06/01 03:50:51;;;;;;;23.05;14.20;;;;;;;-148.88;100.00;-17125.47;5014072;28;20026;-83
2023/06/01 03:53:16;;;;;;;24.73;13.68;;;;;;;-148.88;100.00;-17125.47;5015406;28;20025;-85
2023/06/01 03:55:42;;;;;;;23.42;14.45;;;;;;;-148.88;100.00;-17125.47;5014370;28;20037;-84
2023/06/01 03:58:07;;;;;;;26.13;15.38;;;;;;;-148.88;100.00;-17125.47;5014302;28;20399;-85
2023/06/01 04:00:36;;;;;;;31.40;17.02;;;;;;;-148.88;100.00;-17125.47;5014259;28;20076;-85
2023/06/01 04:03:07;;;;;;;23.95;14.35;;;;;;;-148.88;100.00;-17125.47;5015137;28;20116;-84
2023/06/01 04:05:32;;;;;;;23.60;14.73;;;;;;;-148.88;100.00;-17125.47;5014360;28;20032;-82
2023/06/01 04:07:58;;;;;;;24.25;16.40;;;;;;;-148.88;100.00;-17125.47;5015667;28;20022;-82
2023/06/01 04:10:23;;;;;;;20.90;10.52;;;;;;;-148.88;100.00;-17125.47;5014727;28;20052;-83
2023/06/01 04:12:50;;;;;;;29.33;17.60;;;;;;;-148.88;100.00;-17125.47;5014804;28;20026;-82
2023/06/01 04:15:18;;;;;;;25.95;16.85;;;;;;;-148.88;100.00;-17125.47;5020344;28;20431;-85
2023/06/01 04:17:44;;;;;;;24.45;16.42;;;;;;;-148.88;100.00;-17125.47;5021006;28;20412;-83
2023/06/01 04:20:18;;;;;;;25.27;15.63;;;;;;;-148.88;100.00;-17125.47;5020009;28;20022;-83
2023/06/01 04:22:45;;;;;;;23.60;16.10;;;;;;;-148.88;100.00;-17125.47;5019901;28;20022;-83
2023/06/01 04:25:12;;;;;;;18.58;9.02;;;;;;;-148.88;100.00;-17125.47;5018734;28;20025;-84
2023/06/01 04:27:44;;;;;;;26.50;17.40;;;;;;;-148.88;100.00;-17125.47;5019114;28;20037;-82
2023/06/01 04:30:10;;;;;;;27.27;17.50;;;;;;;-148.88;100.00;-17125.47;5017909;28;20044;-83
2023/06/01 04:32:40;;;;;;;26.38;10.32;;;;;;;-148.88;100.00;-17125.47;5018801;28;20026;-83
2023/06/01 04:35:07;;;;;;;28.77;16.85;;;;;;;-148.88;100.00;-17125.47;5015406;28;20388;-82
2023/06/01 04:37:39;;;;;;;24.25;16.38;;;;;;;-148.88;100.00;-17125.47;5016537;28;20022;-82
2023/06/01 04:40:09;;;;;;;21.33;15.32;;;;;;;-148.88;100.00;-17125.47;5014625;28;20029;-83
2023/06/01 04:42:35;;;;;;;24.83;16.77;;;;;;;-148.88;100.00;-17125.47;5013512;28;20509;-83
2023/06/01 04:45:04;;;;;;;27.08;17.02;;;;;;;-148.88;100.00;-17125.47;5013551;28;20112;-82
2023/06/01 04:47:32;;;;;;;30.33;18.83;;;;;;;-148.88;100.00;-17125.47;5014518;28;20481;-81
2023/06/01 04:49:58;;;;;;;27.10;18.40;;;;;;;-148.88;100.00;-17125.47;5015824;28;20420;-82
2023/06/01 04:52:24;;;;;;;29.35;19.92;;;;;;;-148.88;100.00;-17125.47;5014290;28;20050;-82
2023/06/01 04:54:49;;;;;;;32.10;19.40;;;;;;;-148.88;100.00;-17125.47;5015407;28;20392;-85
2023/06/01 04:57:16;;;;;;;30.88;20.00;;;;;;;-148.88;100.00;-17125.47;5025330;28;20022;-86
2023/06/01 04:59:42;;;;;;;29.88;19.20;;;;;;;-148.88;100.00;-17125.47;5026489;28;20038;-84
2023/06/01 05:02:07;;;;;;;24.58;10.45;;;;;;;-148.88;100.00;-17125.47;5025654;28;20477;-84
2023/06/01 05:04:33;;;;;;;27.73;18.08;;;;;;;-148.88;100.00;-17125.47;5025584;28;20029;-84
2023/06/01 05:06:58;;;;;;;25.83;18.30;;;;;;;-148.88;100.00;-17125.47;5024320;28;20033;-84
2023/06/01 05:09:23;;;;;;;26.77;19.13;;;;;;;-148.88;100.00;-17125.47;5021430;28;20030;-84
2023/06/01 05:11:49;;;;;;;28.77;18.88;;;;;;;-148.88;100.00;-17125.47;5021362;28;20033;-84
2023/06/01 05:14:15;;;;;;;30.80;19.27;;;;;;;-148.88;100.00;-17125.47;5016336;28;20107;-84
2023/06/01 05:16:40;;;;;;;27.88;19.08;;;;;;;-148.88;100.00;-17125.47;5016200;28;20050;-83
2023/06/01 05:19:05;;;;;;;27.17;17.40;;;;;;;-148.88;100.00;-17125.47;5012756;28;20099;-82
2023/06/01 05:21:34;;;;;;;28.95;18.05;;;;;;;-148.88;100.00;-17125.47;5015281;28;20319;-83
2023/06/01 05:23:59;;;;;;;27.65;11.25;;;;;;;-148.88;100.00;-17125.47;5013557;28;20523;-81
2023/06/01 05:26:25;;;;;;;23.95;10.50;;;;;;;-148.88;100.00;-17125.47;5014561;28;20026;-82
2023/06/01 05:28:50;;;;;;;31.10;19.15;;;;;;;-148.88;100.00;-17125.47;5015468;28;20064;-82
2023/06/01 05:31:16;;;;;;;39.00;11.80;;;;;;;-148.88;100.00;-17125.47;5013382;28;20463;-81
2023/06/01 05:33:41;;;;;;;24.13;11.52;;;;;;;-148.88;100.00;-17125.47;5014045;28;20022;-85
2023/06/01 05:36:07;;;;;;;31.48;19.80;;;;;;;-148.88;100.00;-17125.47;5013178;28;20032;-81
2023/06/01 05:38:32;;;;;;;30.13;20.10;;;;;;;-148.88;100.00;-17125.47;5013791;28;20475;-82
2023/06/01 05:40:57;;;;;;;23.52;10.63;;;;;;;-148.88;100.00;-17125.47;5013893;28;20034;-82
2023/06/01 05:43:23;;;;;;;27.77;10.65;;;;;;;-148.88;100.00;-17125.47;5014280;28;20403;-83
2023/06/01 05:45:48;;;;;;;31.40;20.25;;;;;;;-148.88;100.00;-17125.47;5013760;28;20025;-83
2023/06/01 05:48:14;;;;;;;26.52;10.45;;;;;;;-148.88;100.00;-17125.47;5013553;28;20132;-83
2023/06/01 05:50:42;;;;;;;27.33;17.60;;;;;;;-148.88;100.00;-17125.47;5012657;28;20050;-84
2023/06/01 05:53:09;;;;;;;33.20;18.33;;;;;;;-148.88;100.00;-17125.47;5014027;28;20022;-82
2023/06/01 05:55:35;;;;;;;30.10;18.83;;;;;;;-148.88;100.00;-17125.47;5012259;28;20030;-82
2023/06/01 05:58:00;;;;;;;31.30;18.25;;;;;;;-148.88;100.00;-17125.47;5014242;28;20030;-83
2023/06/01 06:00:25;;;;;;;20.58;9.45;;;;;;;-148.88;100.00;-17125.47;5013510;28;20039;-83
2023/06/01 06:02:53;;;;;;;25.48;17.15;;;;;;;-148.88;100.00;-17125.47;5012660;28;20041;-82
2023/06/01 06:05:18;;;;;;;28.75;16.00;;;;;;;-148.88;100.00;-17125.47;5014104;28;20025;-83
2023/06/01 06:07:44;;;;;;;25.83;16.13;;;;;;;-148.88;100.00;-17125.47;5013205;28;20034;-82
2023/06/01 06:10:11;;;;;;;26.00;16.35;;;;;;;-148.88;100.00;-17125.47;5013215;28;20503;-82
2023/06/01 06:12:37;;;;;;;24.17;16.13;;;;;;;-148.88;100.00;-17125.47;5012201;28;20120;-82
2023/06/01 06:15:04;;;;;;;30.80;16.13;;;;;;;-148.88;100.00;-17125.47;5011944;28;20114;-83
2023/06/01 06:17:29;;;;;;;28.55;16.25;;;;;;;-148.88;100.00;-17125.47;5012251;28;20026;-82
2023/06/01 06:19:55;;;;;;;24.98;16.35;;;;;;;-148.88;100.00;-17125.47;5013535;28;20025;-83
2023/06/01 06:22:21;;;;;;;23.85;15.40;;;;;;;-148.88;100.00;-17125.47;5013713;28;20049;-82
2023/06/01 06:24:47;;;;;;;21.33;14.98;;;;;;;-148.88;100.00;-17125.47;5014183;28;20104;-82
2023/06/01 06:27:13;;;;;;;25.80;15.63;;;;;;;-148.88;100.00;-17125.47;5016176;28;20061;-84
2023/06/01 06:29:38;;;;;;;26.83;16.00;;;;;;;-148.88;100.00;-17125.47;5017019;28;20024;-84
2023/06/01 06:32:04;;;;;;;26.50;15.35;;;;;;;-148.88;100.00;-17125.47;5018985;28;20071;-85
2023/06/01 06:34:35;;;;;;;26.98;14.02;;;;;;;-148.88;100.00;-17125.47;5019244;28;20026;-84
2023/06/01 06:37:07;;;;;;;23.17;14.18;;;;;;;-148.88;100.00;-17125.47;5020033;28;20121;-84
2023/06/01 06:39:33;;;;;;;27.10;14.77;;;;;;;-148.88;100.00;-17125.47;5019439;28;20032;-85
2023/06/01 06:42:02;;;;;;;26.33;14.60;;;;;;;-148.88;100.00;-17125.47;5016996;28;20084;-85
2023/06/01 06:44:27;;;;;;;25.42;15.50;;;;;;;-148.88;100.00;-17125.47;5019434;28;20476;-84
2023/06/01 06:47:00;;;;;;;27.38;15.05;;;;;;;-148.88;100.00;-17125.47;5018890;28;20034;-84
2023/06/01 06:49:32;;;;;;;21.80;8.60;;;;;;;-148.88;100.00;-17125.47;5017847;28;20018;-84
2023/06/01 06:51:57;;;;;;;31.33;15.38;;;;;;;-148.88;100.00;-17125.47;5014826;28;20354;-83
2023/06/01 06:54:23;;;;;;;24.60;15.35;;;;;;;-148.88;100.00;-17125.47;5014600;28;20500;-82
2023/06/01 06:56:48;;;;;;;29.08;15.40;;;;;;;-148.88;100.00;-17125.47;5012854;28;20597;-85
2023/06/01 06:59:14;;;;;;;26.67;15.73;;;;;;;-148.88;100.00;-17125.47;5024333;28;20029;-85
2023/06/01 07:01:56;;;;;;;26.02;14.82;;;;;;;-148.88;100.00;-17125.47;5019659;28;20200;-85
2023/06/01 07:04:28;;;;;;;29.58;14.90;;;;;;;-148.88;100.00;-17125.47;5019646;28;20426;-84
2023/06/01 07:06:54;;;;;;;23.10;9.27;;;;;;;-148.88;100.00;-17125.47;5019298;28;20396;-84
2023/06/01 07:09:33;;;;;;;25.23;15.15;;;;;;;-148.88;100.00;-17125.47;5012839;28;20053;-83
2023/06/01 07:11:58;;;;;;;22.27;14.27;;;;;;;-148.88;100.00;-17125.47;5012342;28;20026;-82
2023/06/01 07:14:24;;;;;;;26.27;14.65;;;;;;;-148.88;100.00;-17125.47;5011652;28;20032;-83
2023/06/01 07:16:50;;;;;;;24.50;14.32;;;;;;;-148.88;100.00;-17125.47;5012481;28;20033;-82
2023/06/01 07:19:16;;;;;;;22.52;14.52;;;;;;;-148.88;100.00;-17125.47;5012834;28;20026;-82
2023/06/01 07:21:41;;;;;;;23.40;15.55;;;;;;;-148.88;100.00;-17125.47;5016711;28;20378;-82
2023/06/01 07:24:07;;;;;;;27.88;14.60;;;;;;;-148.88;100.00;-17125.47;5016148;28;20397;-83
2023/06/01 07:26:33;;;;;;;28.23;14.82;;;;;;;-148.88;100.00;-17125.47;5017341;28;20018;-83
2023/06/01 07:28:59;;;;;;;22.88;14.07;;;;;;;-148.88;100.00;-17125.47;5015728;28;20503;-83
2023/06/01 07:31:27;;;;;;;26.50;14.75;;;;;;;-148.88;100.00;-17125.47;5016598;28;20037;-82
2023/06/01 07:33:53;;;;;;;17.00;7.15;;;;;;;-148.88;100.00;-17125.47;5016102;28;20044;-82
2023/06/01 07:36:20;;;;;;;21.58;13.15;;;;;;;-148.88;100.00;-17125.47;5017331;28;20026;-83
2023/06/01 07:38:45;;;;;;;27.80;12.70;;;;;;;-148.88;100.00;-17125.47;5016803;28;20419;-82
2023/06/01 07:41:11;;;;;;;21.40;12.32;;;;;;;-148.88;100.00;-17125.47;5015522;28;20480;-84
2023/06/01 07:43:38;;;;;;;18.77;11.32;;;;;;;-148.88;100.00;-17125.47;5014950;28;20046;-84
2023/06/01 07:46:03;;;;;;;16.23;11.13;;;;;;;-148.88;100.00;-17125.47;5015182;28;20084;-83
2023/06/01 07:48:29;;;;;;;17.92;11.82;;;;;;;-148.88;100.00;-17125.47;5015562;28;20022;-85
2023/06/01 07:50:54;;;;;;;18.65;11.10;;;;;;;-148.88;100.00;-17125.47;5015916;28;20033;-84
2023/06/01 07:53:20;;;;;;;19.25;11.13;;;;;;;-148.88;100.00;-17125.47;5014422;28;20496;-81
2023/06/01 07:55:48;;;;;;;17.90;10.85;;;;;;;-148.88;100.00;-17125.47;5014531;28;20032;-83
2023/06/01 07:58:14;;;;;;;19.23;7.55;;;;;;;-148.88;100.00;-17125.47;5014789;28;20029;-84
2023/06/01 08:01:00;;;;;;;24.48;13.93;;;;;;;-148.88;100.00;-17125.47;5014680;28;20018;-86
2023/06/01 08:03:28;;;;;;;22.92;12.63;;;;;;;-148.88;100.00;-17125.47;5015725;28;20112;-86
2023/06/01 08:06:04;;;;;;;22.77;13.05;;;;;;;-148.88;100.00;-17125.47;5015787;28;20053;-85
2023/06/01 08:08:30;;;;;;;14.70;9.32;;;;;;;-148.88;100.00;-17125.47;5014315;28;20411;-87
2023/06/01 08:10:56;;;;;;;12.48;8.60;;;;;;;-148.88;100.00;-17125.47;5015136;28;20026;-85
2023/06/01 08:13:21;;;;;;;18.60;9.23;;;;;;;-148.88;100.00;-17125.47;5015157;28;20057;-86
2023/06/01 08:15:50;;;;;;;16.88;9.35;;;;;;;-148.88;100.00;-17125.47;5014252;28;20116;-84
2023/06/01 08:18:22;;;;;;;18.17;9.45;;;;;;;-148.88;100.00;-17125.47;5016618;28;20022;-85
2023/06/01 08:20:48;;;;;;;18.08;10.63;;;;;;;-148.88;100.00;-17125.47;5015086;28;20085;-85
2023/06/01 08:23:16;;;;;;;19.15;10.40;;;;;;;-148.88;100.00;-17125.47;5013827;28;20113;-84
2023/06/01 08:25:42;;;;;;;19.10;11.05;;;;;;;-148.88;100.00;-17125.47;5014037;28;20030;-82
2023/06/01 08:28:07;;;;;;;18.80;10.13;;;;;;;-148.88;100.00;-17125.47;5015869;28;20057;-82
2023/06/01 08:30:33;;;;;;;17.48;10.48;;;;;;;-148.88;100.00;-17125.47;5014528;28;20057;-85
2023/06/01 08:32:58;;;;;;;20.70;10.57;;;;;;;-148.88;100.00;-17125.47;5014156;28;20113;-83
2023/06/01 08:35:25;;;;;;;18.55;10.20;;;;;;;-148.88;100.00;-17125.47;5015699;28;20104;-85
2023/06/01 08:37:50;;;;;;;18.60;10.68;;;;;;;-148.88;100.00;-17125.47;5013758;28;20026;-84
2023/06/01 08:40:16;;;;;;;18.50;9.95;;;;;;;-148.88;100.00;-17125.47;5013927;28;20028;-81
2023/06/01 08:42:45;;;;;;;15.02;10.25;;;;;;;-148.88;100.00;-17125.47;5013920;28;20022;-84
2023/06/01 08:45:12;;;;;;;16.80;9.63;;;;;;;-148.88;100.00;-17125.47;5011593;28;20045;-86
2023/06/01 08:47:40;;;;;;;16.33;8.88;;;;;;;-148.88;100.00;-17125.47;5013722;28;20017;-84
2023/06/01 08:50:09;;;;;;;13.93;8.70;;;;;;;-148.88;100.00;-17125.47;5020811;28;20092;-85
2023/06/01 08:52:37;;;;;;;13.85;8.73;;;;;;;-148.88;100.00;-17125.47;5019628;28;20053;-85
2023/06/01 08:55:04;;;;;;;13.93;8.82;;;;;;;-148.88;100.00;-17125.47;5018931;28;20032;-86
2023/06/01 08:57:30;;;;;;;17.88;8.35;;;;;;;-148.88;100.00;-17125.47;5026701;28;20049;-87
2023/06/01 08:59:58;;;;;;;14.68;8.68;;;;;;;-148.88;100.00;-17125.47;5021416;28;20088;-85
2023/06/01 09:02:23;;;;;;;12.02;8.85;;;;;;;-148.88;100.00;-17125.47;5018176;28;20117;-86
2023/06/01 09:04:50;;;;;;;16.75;8.65;;;;;;;-148.88;100.00;-17125.47;5016807;28;20030;-85
2023/06/01 09:07:16;;;;;;;13.85;8.27;;;;;;;-148.88;100.00;-17125.47;5001480;28;20038;-84
2023/06/01 09:09:43;;;;;;;16.25;8.27;;;;;;;-148.88;100.00;-17125.47;4998661;28;20121;-86
2023/06/01 09:12:17;;;;;;;16.17;8.88;;;;;;;-148.88;100.00;-17125.47;4997452;28;20113;-86
2023/06/01 09:14:42;;;;;;;13.38;8.27;;;;;;;-148.88;100.00;-17125.47;4994961;28;20034;-87
2023/06/01 09:17:13;;;;;;;15.68;8.32;;;;;;;-148.88;100.00;-17125.47;4994432;28;20500;-85
2023/06/01 09:19:45;;;;;;;13.40;8.00;;;;;;;-148.88;100.00;-17125.47;4993519;28;20137;-85
2023/06/01 09:22:14;;;;;;;15.90;8.35;;;;;;;-148.88;100.00;-17125.47;4994720;28;20105;-85
2023/06/01 09:24:43;;;;;;;15.07;7.47;;;;;;;-148.88;100.00;-17125.47;4995294;28;20033;-84
2023/06/01 09:27:09;;;;;;;12.57;6.78;;;;;;;-148.88;100.00;-17125.47;4993094;28;20463;-86
2023/06/01 09:29:34;;;;;;;10.23;5.22;;;;;;;-148.88;100.00;-17125.47;4994193;28;20481;-83
2023/06/01 09:32:01;;;;;;;8.95;5.35;;;;;;;-148.88;100.00;-17125.47;5000275;28;20076;-85
2023/06/01 09:34:26;;;;;;;8.65;4.93;;;;;;;-148.88;100.00;-17125.47;5008761;28;20085;-90
2023/06/01 09:36:54;;;;;;;8.18;5.25;;;;;;;-148.88;100.00;-17125.47;4998275;28;20075;-86
2023/06/01 09:39:22;;;;;;;9.98;5.70;;;;;;;-148.88;100.00;-17125.47;5002017;28;20024;-84
2023/06/01 09:41:53;;;;;;;9.48;5.47;;;;;;;-148.88;100.00;-17125.47;4996913;28;20033;-84
2023/06/01 09:44:26;;;;;;;9.77;5.95;;;;;;;-148.88;100.00;-17125.47;5001317;28;20053;-84
2023/06/01 09:46:57;;;;;;;10.30;6.43;;;;;;;-148.88;100.00;-17125.47;4997681;28;20057;-89
2023/06/01 09:49:25;;;;;;;8.38;5.93;;;;;;;-148.88;100.00;-17125.47;4997347;28;20032;-86
2023/06/01 09:52:16;;;;;;;8.77;5.63;;;;;;;-148.88;100.00;-17125.47;4995059;28;20037;-89
2023/06/01 09:54:49;;;;;;;8.00;5.53;;;;;;;-148.88;100.00;-17125.47;4988131;28;20053;-84
2023/06/01 09:57:23;;;;;;;9.25;5.63;;;;;;;-148.88;100.00;-17125.47;4998973;28;20041;-83
2023/06/01 09:59:49;;;;;;;9.57;5.95;;;;;;;-148.88;100.00;-17125.47;4997004;28;20050;-84
2023/06/01 10:02:24;;;;;;;8.82;5.32;;;;;;;-148.88;100.00;-17125.47;4999936;28;20570;-83
2023/06/01 10:04:50;;;;;;;9.15;5.72;;;;;;;-148.88;100.00;-17125.47;5001491;28;20413;-83
2023/06/01 10:07:17;;;;;;;9.90;6.20;;;;;;;-148.88;100.00;-17125.47;5000307;28;20030;-83
2023/06/01 10:09:48;;;;;;;12.65;6.15;;;;;;;-148.88;100.00;-17125.47;4999180;28;20104;-83
2023/06/01 10:12:14;;;;;;;11.32;6.13;;;;;;;-148.88;100.00;-17125.47;4996307;28;20036;-83
2023/06/01 10:17:07;;;;;;;8.45;6.43;;;;;;;-148.88;100.00;-17125.47;4954003;23;20418;-86
2023/06/01 10:19:32;;;;;;;8.23;6.20;;;;;;;-148.88;100.00;-17125.47;4931350;29;20031;-85
2023/06/01 10:21:58;;;;;;;8.60;6.07;;;;;;;-148.88;100.00;-17125.47;4932941;29;20026;-86
2023/06/01 10:24:26;;;;;;;11.27;6.03;;;;;;;-148.88;100.00;-17125.47;4933469;29;20024;-85
2023/06/01 10:27:01;;;;;;;10.57;6.40;;;;;;;-148.88;100.00;-17125.47;4932088;29;20046;-86
2023/06/01 10:29:29;;;;;;;9.70;6.20;;;;;;;-148.88;100.00;-17125.47;4947764;29;20023;-84
2023/06/01 10:31:55;;;;;;;10.63;7.13;;;;;;;-148.88;100.00;-17125.47;4951879;28;20113;-87
2023/06/01 10:34:42;;;;;;;9.15;6.45;;;;;;;-148.88;100.00;-17125.47;4942825;29;20031;-85
2023/06/01 10:37:07;;;;;;;11.55;6.32;;;;;;;-148.88;100.00;-17125.47;4948428;29;20394;-85
2023/06/01 10:39:34;;;;;;;8.90;6.57;;;;;;;-148.88;100.00;-17125.47;4954107;28;20038;-86
2023/06/01 10:42:18;;;;;;;8.38;5.68;;;;;;;-148.88;100.00;-17125.47;4955599;28;20023;-85
2023/06/01 10:44:44;;;;;;;9.35;6.45;;;;;;;-148.88;100.00;-17125.47;4955388;28;20379;-86
2023/06/01 10:47:12;;;;;;;9.48;6.05;;;;;;;-148.88;100.00;-17125.47;4955763;28;20030;-86
2023/06/01 10:49:46;;;;;;;9.45;6.70;;;;;;;-148.88;100.00;-17125.47;4955414;28;20102;-85
2023/06/01 10:52:38;;;;;;;10.20;6.68;;;;;;;-148.88;100.00;-17125.47;4955388;28;20031;-85
2023/06/01 10:55:06;;;;;;;9.88;7.30;;;;;;;-148.88;100.00;-17125.47;4959485;28;20074;-85